Página principal
METAR-TAF:

METAR-TAF

Aeroportos :

Koror, Babeldaob, Palau

latitude: 07-22N, longitude: 134-32E, altura: 54 m

Observação actual do tempo

O boletim foi feito há 49 minutos, às 09:54 UTC
Vento 6 kt de su-sudoeste
Temperatura 28°C
Humidade 84%
Pressão 1009 hPa
Visibilidade: 24.1 km
Nuvens dispersasa uma altura de 1600 ft
Nuvens fragmentadasa uma altura de 12000 ft
Nuvens fragmentadasa uma altura de 30000 ft

METAR: PTRO 200954Z 20006KT 15SM SCT016 BKN120 BKN300 28/25 A2979

Hora: 19:43 (10:43 UTC)

Previsão

O boletim foi feito há 5 horas e 12 minutos, às 05:31 UTC
Previsão válida de 20 às 06 UTC a 21 às 06 UTC
Vento 8 kt de su-sudoeste
Visibilidade: 10 km
Nuvens dispersasa uma altura de 1600 ft
Nuvens fragmentadasa uma altura de 12000 ft
Nuvens fragmentadasa uma altura de 30000 ft
aguaceiros nas vizinhanças

TAF: PTRO 200531Z 2006/2106 21008KT P6SM VCSH SCT016 BKN120 BKN300

Observações e previsões do tempo de mais de 4000 aeroportos (mensagens METAR e TAF).

As estações disponíveis são os pontos amarelos e vermelhos sobre o mapa.

Mova o rato sobre o mapa para ver o nome da estação.

Depois clique no ponto para visualizar as observações e previsões meteorológicas.

Para alterar o mapa : clique nos botões verdes com uma cruz preta para aumentar o zoom; no botão verde com uma pitada de zoom; ou nas setas verdes para mapas adjacentes.


METAR-TAF: